Time;durP1;ratioP1;P1;durP2;ratioP2;P2;SDS_P1;SDS_P2;PMS_P1;PMS_P2;Temp;Humidity;BMP_temperature;BMP_pressure;BME280_temperature;BME280_humidity;BME280_pressure;Samples;Min_cycle;Max_cycle;Signal;HPM_P1;HPM_P2
2023/12/06 00:01:53;;;;;;;111.55;52.03;;;;;;;-1.05;89.70;100592.44;4954741;28;20497;-72
2023/12/06 00:04:20;;;;;;;106.47;51.42;;;;;;;-1.08;90.14;100591.72;4954339;28;20472;-72
2023/12/06 00:06:46;;;;;;;105.47;53.08;;;;;;;-1.20;90.32;100593.06;4953769;28;20506;-73
2023/12/06 00:09:13;;;;;;;109.00;50.47;;;;;;;-1.39;91.43;100594.75;4955407;28;20102;-73
2023/12/06 00:11:40;;;;;;;105.93;50.20;;;;;;;-1.17;90.84;100598.28;4954238;28;20054;-72
2023/12/06 00:14:08;;;;;;;115.05;52.78;;;;;;;-1.20;90.79;100598.38;4955662;28;20051;-72
2023/12/06 00:16:39;;;;;;;112.63;53.58;;;;;;;-1.03;90.47;100587.91;4954108;28;20457;-72
2023/12/06 00:19:06;;;;;;;105.53;50.95;;;;;;;-1.25;90.31;100583.56;4954415;28;20422;-72
2023/12/06 00:21:33;;;;;;;107.00;51.78;;;;;;;-1.46;91.96;100587.97;4954584;28;20104;-72
2023/12/06 00:24:00;;;;;;;115.55;52.35;;;;;;;-1.52;92.14;100585.56;4955262;28;20090;-72
2023/12/06 00:26:27;;;;;;;109.38;51.85;;;;;;;-1.47;92.30;100588.88;4954346;28;20050;-72
2023/12/06 00:28:54;;;;;;;108.60;52.35;;;;;;;-1.36;92.24;100587.53;4959331;28;20053;-72
2023/12/06 00:31:21;;;;;;;112.15;51.83;;;;;;;-1.42;91.91;100586.91;4954149;28;20051;-72
2023/12/06 00:33:47;;;;;;;121.00;53.45;;;;;;;-1.21;91.63;100599.31;4953510;28;20483;-72
2023/12/06 00:36:14;;;;;;;118.50;55.13;;;;;;;-1.21;90.92;100591.34;4954292;28;20053;-72
2023/12/06 00:38:41;;;;;;;119.43;54.00;;;;;;;-1.29;91.76;100594.31;4952347;28;20055;-72
2023/12/06 00:41:07;;;;;;;120.85;55.10;;;;;;;-1.38;92.09;100589.38;4952952;28;20525;-72
2023/12/06 00:43:34;;;;;;;124.40;57.10;;;;;;;-1.39;92.36;100586.78;4953200;28;20047;-72
2023/12/06 00:46:00;;;;;;;120.15;56.47;;;;;;;-1.36;92.31;100589.34;4952805;28;20415;-72
2023/12/06 00:48:27;;;;;;;127.90;56.28;;;;;;;-1.42;92.29;100593.09;4952714;28;20086;-72
2023/12/06 00:50:53;;;;;;;117.72;56.42;;;;;;;-1.43;91.93;100590.50;4952296;28;20534;-72
2023/12/06 00:53:20;;;;;;;124.68;54.63;;;;;;;-1.49;92.99;100590.75;4948320;28;20099;-72
2023/12/06 00:55:47;;;;;;;117.32;54.95;;;;;;;-1.37;92.31;100596.44;4934606;29;20055;-72
2023/12/06 00:58:13;;;;;;;111.35;55.10;;;;;;;-1.29;91.96;100598.78;4934047;28;20051;-72
2023/12/06 01:00:40;;;;;;;118.38;55.35;;;;;;;-1.25;91.67;100599.53;4933723;28;20493;-72
2023/12/06 01:03:06;;;;;;;124.03;56.08;;;;;;;-1.25;91.55;100600.41;4937649;28;20130;-72
2023/12/06 01:05:33;;;;;;;117.63;55.60;;;;;;;-1.27;92.29;100596.94;4937751;29;20082;-72
2023/12/06 01:08:01;;;;;;;116.05;55.22;;;;;;;-1.05;91.15;100602.22;4951195;28;20527;-72
2023/12/06 01:10:28;;;;;;;119.82;54.40;;;;;;;-0.92;90.31;100599.88;4937072;28;20084;-72
2023/12/06 01:12:55;;;;;;;118.18;55.20;;;;;;;-1.16;91.32;100600.00;4937180;29;20067;-72
2023/12/06 01:15:21;;;;;;;122.20;54.65;;;;;;;-1.20;91.88;100609.03;4937113;28;20044;-72
2023/12/06 01:17:48;;;;;;;124.72;55.45;;;;;;;-1.24;91.70;100617.22;4937556;29;20056;-72
2023/12/06 01:20:14;;;;;;;115.43;52.85;;;;;;;-1.26;92.26;100603.97;4938418;29;20057;-72
2023/12/06 01:22:41;;;;;;;127.22;54.67;;;;;;;-1.44;93.09;100604.75;4937618;28;20504;-72
2023/12/06 01:25:08;;;;;;;115.53;55.88;;;;;;;-1.32;92.75;100609.53;4936845;28;20400;-74
2023/12/06 01:27:35;;;;;;;119.72;54.38;;;;;;;-1.07;91.92;100612.94;4936440;29;20052;-74
2023/12/06 01:30:03;;;;;;;120.85;56.13;;;;;;;-1.20;92.19;100614.34;4937450;29;20051;-73
2023/12/06 01:32:38;;;;;;;114.22;54.55;;;;;;;-1.20;92.52;100619.69;4937174;29;20043;-73
2023/12/06 01:35:07;;;;;;;116.43;53.92;;;;;;;-1.18;92.48;100625.81;4937253;29;20127;-73
2023/12/06 01:37:33;;;;;;;115.10;53.08;;;;;;;-1.03;91.92;100621.63;4936546;29;20560;-73
2023/12/06 01:40:00;;;;;;;114.95;54.60;;;;;;;-1.23;92.17;100622.47;4949773;28;20043;-73
2023/12/06 01:42:26;;;;;;;120.70;56.22;;;;;;;-1.24;92.73;100620.75;4936118;28;20107;-73
2023/12/06 01:44:53;;;;;;;115.25;55.70;;;;;;;-1.22;92.84;100615.34;4935371;28;20059;-73
2023/12/06 01:47:20;;;;;;;119.07;54.28;;;;;;;-1.33;93.15;100619.31;4936507;29;20126;-73
2023/12/06 01:49:48;;;;;;;127.80;56.10;;;;;;;-1.27;93.30;100622.69;4936292;28;20103;-73
2023/12/06 01:52:15;;;;;;;130.80;57.17;;;;;;;-1.32;92.90;100620.19;4936515;29;20044;-73
2023/12/06 01:54:41;;;;;;;117.72;55.38;;;;;;;-1.04;92.25;100615.44;4950656;28;20180;-73
2023/12/06 01:57:08;;;;;;;122.07;55.33;;;;;;;-1.05;92.15;100619.03;4954857;28;20043;-73
2023/12/06 01:59:39;;;;;;;114.38;53.67;;;;;;;-0.85;90.85;100609.34;4954380;28;20070;-73
2023/12/06 02:02:06;;;;;;;119.13;54.22;;;;;;;-0.89;91.23;100605.09;4954897;28;20432;-73
2023/12/06 02:04:33;;;;;;;121.45;53.78;;;;;;;-0.78;90.22;100606.34;4954651;28;20460;-73
2023/12/06 02:07:22;;;;;;;114.50;53.28;;;;;;;-0.85;90.52;100612.88;4954640;28;20055;-73
2023/12/06 02:09:49;;;;;;;117.43;51.97;;;;;;;-1.04;91.80;100604.81;4953532;28;20118;-73
2023/12/06 02:12:16;;;;;;;112.32;52.33;;;;;;;-0.99;91.65;100611.75;4952460;28;20051;-73
2023/12/06 02:14:43;;;;;;;111.60;50.72;;;;;;;-0.97;91.85;100607.22;4953613;28;20090;-73
2023/12/06 02:17:11;;;;;;;109.60;52.75;;;;;;;-1.08;92.08;100600.56;4964366;28;20047;-72
2023/12/06 02:19:39;;;;;;;104.05;50.20;;;;;;;-1.08;92.27;100597.91;4974482;28;20083;-73
2023/12/06 02:22:07;;;;;;;116.32;53.15;;;;;;;-1.04;92.21;100588.84;4973877;28;20051;-71
2023/12/06 02:24:35;;;;;;;115.82;54.45;;;;;;;-1.06;92.08;100593.38;4972557;28;20487;-71
2023/12/06 02:27:02;;;;;;;116.53;53.30;;;;;;;-1.05;92.16;100592.44;4972621;28;20058;-73
2023/12/06 02:29:29;;;;;;;106.05;50.85;;;;;;;-0.93;92.37;100591.03;4972437;28;20051;-72
2023/12/06 02:31:55;;;;;;;111.60;50.78;;;;;;;-0.85;92.30;100598.69;4972592;28;20074;-71
2023/12/06 02:34:26;;;;;;;104.95;50.85;;;;;;;-1.03;92.04;100593.22;4973569;28;20051;-71
2023/12/06 02:37:00;;;;;;;111.78;50.75;;;;;;;-1.10;92.39;100602.38;4972007;28;20051;-71
2023/12/06 02:39:29;;;;;;;;;;;;;;;-1.20;93.23;100609.03;4972228;28;20075;-72
2023/12/06 02:41:56;;;;;;;112.18;50.05;;;;;;;-1.22;93.12;100610.91;4971799;28;19911;-71
2023/12/06 02:44:23;;;;;;;111.15;50.65;;;;;;;-1.25;93.82;100611.03;4971446;28;20047;-71
2023/12/06 02:46:50;;;;;;;113.35;51.20;;;;;;;-1.08;93.74;100605.88;4969656;28;20051;-72
2023/12/06 02:49:17;;;;;;;115.15;52.45;;;;;;;-0.91;92.39;100598.94;4972423;28;20044;-71
2023/12/06 02:51:44;;;;;;;113.78;51.35;;;;;;;-1.09;92.95;100606.81;4970602;28;20047;-71
2023/12/06 02:54:10;;;;;;;109.88;51.15;;;;;;;-1.10;93.16;100604.19;4955598;29;20055;-72
2023/12/06 02:56:37;;;;;;;112.45;52.53;;;;;;;-1.01;93.61;100591.34;4949234;28;20131;-72
2023/12/06 02:59:03;;;;;;;114.25;52.05;;;;;;;-0.85;92.23;100593.38;4949150;28;20111;-71
2023/12/06 03:01:30;;;;;;;106.20;50.13;;;;;;;-0.82;91.92;100594.09;4948014;28;20098;-71
2023/12/06 03:03:56;;;;;;;109.93;50.83;;;;;;;-0.85;91.65;100588.03;4949402;28;20051;-71
2023/12/06 03:06:23;;;;;;;116.80;54.03;;;;;;;-1.04;92.67;100580.84;4948249;28;20067;-72
2023/12/06 03:08:50;;;;;;;103.72;49.50;;;;;;;-0.84;92.94;100595.09;4947392;28;20107;-71
2023/12/06 03:11:16;;;;;;;113.07;52.20;;;;;;;-1.01;92.74;100588.69;4948801;28;20044;-71
2023/12/06 03:13:43;;;;;;;106.25;50.25;;;;;;;-1.17;93.90;100590.28;4946570;28;20052;-72
2023/12/06 03:16:10;;;;;;;108.85;49.92;;;;;;;-0.93;92.77;100580.38;4948011;28;20103;-71
2023/12/06 03:18:36;;;;;;;103.50;51.22;;;;;;;-0.94;93.24;100578.66;4947313;28;20055;-71
2023/12/06 03:21:03;;;;;;;121.05;52.42;;;;;;;-1.11;93.41;100571.38;4946286;29;20055;-71
2023/12/06 03:23:30;;;;;;;114.75;50.33;;;;;;;-1.03;93.22;100582.56;4945595;28;20051;-71
2023/12/06 03:25:57;;;;;;;110.75;50.33;;;;;;;-0.93;93.46;100579.53;4946028;29;20103;-71
2023/12/06 03:28:23;;;;;;;109.85;49.95;;;;;;;-1.01;93.35;100575.38;4961480;28;20051;-72
2023/12/06 03:30:50;;;;;;;114.43;52.03;;;;;;;-1.10;93.46;100575.78;4947005;29;20108;-71
2023/12/06 03:33:16;;;;;;;109.95;51.33;;;;;;;-0.74;92.64;100575.13;4947233;28;20050;-71
2023/12/06 03:35:43;;;;;;;108.88;49.67;;;;;;;-0.88;93.30;100577.53;4946343;28;20068;-72
2023/12/06 03:38:10;;;;;;;119.50;52.50;;;;;;;-0.76;93.00;100571.66;4946122;28;20058;-71
2023/12/06 03:40:37;;;;;;;111.03;50.80;;;;;;;-1.03;93.11;100565.75;4945801;28;20115;-72
2023/12/06 03:43:04;;;;;;;110.80;51.25;;;;;;;-0.80;93.17;100578.06;4945306;28;20056;-71
2023/12/06 03:45:31;;;;;;;112.65;51.90;;;;;;;-0.83;93.14;100571.06;4944231;28;20051;-71
2023/12/06 03:47:58;;;;;;;114.95;52.83;;;;;;;-0.72;92.35;100567.97;4943336;28;20051;-71
2023/12/06 03:50:25;;;;;;;114.97;51.25;;;;;;;-0.69;92.31;100573.13;4944620;28;20071;-71
2023/12/06 03:52:52;;;;;;;112.05;52.00;;;;;;;-0.80;92.54;100572.75;4945544;28;20059;-71
2023/12/06 03:55:18;;;;;;;111.40;51.17;;;;;;;-0.85;93.24;100577.41;4958543;28;20051;-73
2023/12/06 03:57:45;;;;;;;116.22;52.40;;;;;;;-0.78;93.12;100578.88;4964394;28;20523;-71
2023/12/06 04:00:13;;;;;;;113.55;51.55;;;;;;;-0.85;93.49;100580.91;4964248;28;20106;-71
2023/12/06 04:02:40;;;;;;;118.40;52.80;;;;;;;-1.09;94.26;100585.53;4964315;28;20058;-72
2023/12/06 04:05:08;;;;;;;121.57;53.75;;;;;;;-0.86;94.06;100588.97;4964024;28;20058;-71
2023/12/06 04:07:35;;;;;;;118.10;52.33;;;;;;;-0.94;93.41;100593.75;4963132;28;20124;-72
2023/12/06 04:10:01;;;;;;;118.10;53.50;;;;;;;-0.77;93.40;100596.56;4961032;28;20102;-71
2023/12/06 04:12:28;;;;;;;114.60;52.83;;;;;;;-0.99;93.83;100596.63;4960810;28;20054;-71
2023/12/06 04:14:55;;;;;;;123.57;54.35;;;;;;;-0.71;92.90;100598.97;4961392;28;20047;-71
2023/12/06 04:17:21;;;;;;;121.75;53.35;;;;;;;-0.77;92.88;100591.25;4961883;28;20047;-72
2023/12/06 04:19:48;;;;;;;121.05;56.22;;;;;;;-0.73;93.23;100587.50;4960436;28;20110;-71
2023/12/06 04:22:15;;;;;;;128.45;54.13;;;;;;;-0.71;93.07;100591.00;4960587;28;20043;-70
2023/12/06 04:24:42;;;;;;;118.10;54.15;;;;;;;-0.94;93.70;100599.94;4960751;28;20057;-71
2023/12/06 04:27:08;;;;;;;118.93;52.60;;;;;;;-0.71;92.79;100591.00;4960232;28;20062;-71
2023/12/06 04:29:36;;;;;;;126.82;53.97;;;;;;;-0.67;92.58;100586.38;4960851;28;20047;-72
2023/12/06 04:32:02;;;;;;;121.18;53.65;;;;;;;-0.69;92.67;100594.44;4960675;28;20054;-70
2023/12/06 04:34:31;;;;;;;118.15;52.67;;;;;;;-1.02;93.06;100594.94;4962551;28;20463;-69
2023/12/06 04:36:58;;;;;;;120.88;54.25;;;;;;;-1.05;94.37;100591.56;4963293;28;20519;-71
2023/12/06 04:39:25;;;;;;;121.95;53.85;;;;;;;-0.74;93.33;100596.44;4965156;28;20129;-70
2023/12/06 04:41:52;;;;;;;118.60;54.70;;;;;;;-0.79;92.74;100590.44;4966070;28;20047;-71
2023/12/06 04:44:19;;;;;;;122.55;52.88;;;;;;;-0.77;93.34;100591.25;4967302;28;20051;-72
2023/12/06 04:46:49;;;;;;;130.35;54.83;;;;;;;-0.82;93.27;100590.56;4967520;28;20051;-72
2023/12/06 04:49:16;;;;;;;115.68;56.03;;;;;;;-0.82;93.27;100582.56;4968502;28;20047;-71
2023/12/06 04:51:43;;;;;;;121.68;55.15;;;;;;;-0.68;92.87;100596.16;4968721;28;20051;-72
2023/12/06 04:54:09;;;;;;;118.93;54.97;;;;;;;-0.51;92.21;100590.97;4957767;28;20054;-72
2023/12/06 04:56:36;;;;;;;124.00;56.20;;;;;;;-0.89;92.90;100587.31;4948657;28;20108;-71
2023/12/06 04:59:03;;;;;;;123.50;53.78;;;;;;;-0.92;92.93;100591.91;4949971;28;20055;-71
2023/12/06 05:01:29;;;;;;;124.85;56.10;;;;;;;-0.81;92.82;100593.19;4948799;29;20075;-71
2023/12/06 05:03:56;;;;;;;124.00;55.17;;;;;;;-0.75;92.84;100595.56;4947402;28;20078;-71
2023/12/06 05:06:23;;;;;;;122.30;54.75;;;;;;;-0.72;92.44;100590.13;4948028;29;20076;-72
2023/12/06 05:08:50;;;;;;;125.43;56.25;;;;;;;-0.75;92.68;100589.38;4938791;28;20497;-73
2023/12/06 05:11:16;;;;;;;121.82;54.22;;;;;;;-0.78;92.29;100593.03;4946819;28;20511;-73
2023/12/06 05:13:43;;;;;;;127.55;55.65;;;;;;;-0.65;92.31;100589.84;4932574;28;20055;-74
2023/12/06 05:16:09;;;;;;;127.47;54.83;;;;;;;-0.66;91.96;100586.31;4935471;28;20051;-80
2023/12/06 05:18:36;;;;;;;123.13;54.08;;;;;;;-0.56;92.00;100592.94;4935022;28;20048;-77
2023/12/06 05:21:03;;;;;;;120.63;54.38;;;;;;;-0.55;92.09;100584.03;4935519;28;20052;-78
2023/12/06 05:23:30;;;;;;;117.20;53.40;;;;;;;-0.51;91.65;100587.44;4935492;28;20552;-76
2023/12/06 05:25:57;;;;;;;110.93;52.35;;;;;;;-0.53;91.43;100584.84;4934589;28;20053;-77
2023/12/06 05:28:24;;;;;;;115.82;54.45;;;;;;;-0.55;92.05;100588.50;4933129;29;20496;-74
2023/12/06 05:30:50;;;;;;;115.32;53.42;;;;;;;-0.53;91.95;100587.50;4931375;29;20477;-74
2023/12/06 05:33:17;;;;;;;120.07;53.33;;;;;;;-0.47;91.57;100581.03;4933258;28;20056;-73
2023/12/06 05:35:46;;;;;;;116.78;52.63;;;;;;;-0.95;92.98;100581.38;4932540;28;20054;-75
2023/12/06 05:38:13;;;;;;;123.10;54.55;;;;;;;-1.06;94.16;100589.84;4932778;28;20131;-74
2023/12/06 05:40:40;;;;;;;115.13;53.28;;;;;;;-1.03;94.05;100584.38;4931697;28;20051;-75
2023/12/06 05:43:08;;;;;;;124.05;56.55;;;;;;;-0.86;93.62;100586.31;4931263;28;20059;-74
2023/12/06 05:45:34;;;;;;;124.18;54.63;;;;;;;-0.73;93.00;100592.81;4931789;28;20098;-73
2023/12/06 05:48:01;;;;;;;122.75;55.08;;;;;;;-0.76;93.09;100588.50;4933452;28;20605;-73
2023/12/06 05:50:29;;;;;;;132.63;56.75;;;;;;;-0.68;92.48;100592.63;4934866;29;20043;-73
2023/12/06 05:52:55;;;;;;;124.28;54.58;;;;;;;-0.52;92.18;100591.91;4936097;28;20436;-73
2023/12/06 05:55:22;;;;;;;113.70;54.40;;;;;;;-0.64;92.78;100592.41;4952557;28;20099;-74
2023/12/06 05:57:49;;;;;;;131.43;55.40;;;;;;;-0.64;92.75;100594.22;4954238;28;20393;-73
2023/12/06 06:00:17;;;;;;;130.82;56.83;;;;;;;-0.58;92.63;100596.63;4955306;28;20053;-73
2023/12/06 06:02:44;;;;;;;122.03;55.05;;;;;;;-0.55;92.20;100600.00;4954055;28;20407;-73
2023/12/06 06:05:11;;;;;;;116.13;53.47;;;;;;;-0.55;92.20;100601.81;4952542;28;20444;-73
2023/12/06 06:07:38;;;;;;;120.03;54.50;;;;;;;-0.46;91.54;100598.72;4954151;28;20063;-73
2023/12/06 06:10:07;;;;;;;129.48;56.00;;;;;;;-0.47;92.00;100592.53;4953912;28;20055;-73
2023/12/06 06:12:34;;;;;;;131.63;56.75;;;;;;;-0.47;91.47;100595.22;4953653;28;20055;-75
2023/12/06 06:15:02;;;;;;;112.97;52.40;;;;;;;-0.54;91.84;100599.06;4953849;28;20051;-74
2023/12/06 06:17:28;;;;;;;127.82;55.63;;;;;;;-0.52;92.02;100601.69;4952789;28;20048;-74
2023/12/06 06:19:55;;;;;;;129.35;56.10;;;;;;;-0.44;91.96;100600.41;4954521;28;20087;-74
2023/12/06 06:22:22;;;;;;;118.18;53.85;;;;;;;-0.48;92.11;100601.47;4954728;28;20408;-74
2023/12/06 06:24:49;;;;;;;127.72;54.58;;;;;;;-0.56;92.40;100597.41;4953940;28;20043;-74
2023/12/06 06:27:16;;;;;;;128.27;56.88;;;;;;;-0.46;91.88;100594.28;4954786;28;20050;-74
2023/12/06 06:29:44;;;;;;;120.38;55.38;;;;;;;-0.52;92.23;100601.69;4953423;28;20051;-74
2023/12/06 06:32:10;;;;;;;126.60;55.45;;;;;;;-0.55;92.14;100600.00;4953162;28;20082;-73
2023/12/06 06:34:37;;;;;;;132.48;55.00;;;;;;;-0.56;92.62;100603.59;4952863;28;20058;-74
2023/12/06 06:37:08;;;;;;;126.95;54.33;;;;;;;-0.66;92.35;100607.63;4954377;28;20084;-74
2023/12/06 06:39:35;;;;;;;123.40;56.00;;;;;;;-0.71;92.87;100612.28;4954341;28;20123;-73
2023/12/06 06:42:02;;;;;;;123.50;56.47;;;;;;;-0.43;92.27;100612.81;4953988;28;20059;-73
2023/12/06 06:44:30;;;;;;;133.38;53.03;;;;;;;-0.53;92.56;100605.28;4953886;28;20043;-73
2023/12/06 06:46:57;;;;;;;127.32;55.60;;;;;;;-0.49;92.03;100617.53;4952910;28;20500;-73
2023/12/06 06:49:24;;;;;;;122.60;56.72;;;;;;;-0.47;91.61;100613.00;4953740;28;20110;-74
2023/12/06 06:51:51;;;;;;;124.28;55.78;;;;;;;-0.49;92.14;100629.06;4953033;28;20500;-74
2023/12/06 06:54:18;;;;;;;113.60;53.03;;;;;;;-0.55;91.81;100628.44;4953808;28;20126;-74
2023/12/06 06:56:44;;;;;;;116.85;55.08;;;;;;;-0.50;91.52;100626.47;4954025;28;20508;-74
2023/12/06 06:59:11;;;;;;;122.72;56.80;;;;;;;-0.58;91.71;100623.25;4952754;28;20066;-74
2023/12/06 07:01:39;;;;;;;127.22;56.08;;;;;;;-0.44;92.03;100628.88;4953198;28;20102;-75
2023/12/06 07:04:06;;;;;;;124.85;54.40;;;;;;;-0.59;91.89;100619.75;4953700;28;20047;-75
2023/12/06 07:06:33;;;;;;;121.40;54.92;;;;;;;-0.55;92.00;100628.44;4954138;28;20488;-75
2023/12/06 07:09:00;;;;;;;132.15;56.03;;;;;;;-0.66;92.61;100631.59;4953133;28;20051;-75
2023/12/06 07:11:29;;;;;;;119.15;54.17;;;;;;;-0.54;92.32;100631.03;4953577;28;20066;-74
2023/12/06 07:13:56;;;;;;;127.20;57.45;;;;;;;-0.55;91.87;100639.09;4952726;28;20055;-74
2023/12/06 07:16:27;;;;;;;126.10;56.05;;;;;;;-0.69;92.32;100647.72;4952632;28;20497;-75
2023/12/06 07:18:54;;;;;;;118.68;54.92;;;;;;;-0.73;92.14;100641.63;4953437;28;20081;-75
2023/12/06 07:21:21;;;;;;;123.18;57.25;;;;;;;-0.73;92.86;100640.75;4953734;28;20074;-75
2023/12/06 07:23:47;;;;;;;126.82;57.83;;;;;;;-0.58;92.03;100642.78;4952897;28;20055;-74
2023/12/06 07:26:14;;;;;;;125.57;56.17;;;;;;;-0.39;91.56;100644.63;4952826;28;20051;-74
2023/12/06 07:28:41;;;;;;;129.50;59.00;;;;;;;-0.52;91.85;100647.84;4952018;28;20067;-75
2023/12/06 07:31:07;;;;;;;123.68;55.88;;;;;;;-0.65;92.35;100643.09;4953547;28;20507;-75
2023/12/06 07:33:35;;;;;;;123.70;54.00;;;;;;;-0.60;92.40;100647.31;4953042;28;20051;-74
2023/12/06 07:36:03;;;;;;;124.22;54.47;;;;;;;-0.59;92.18;100643.72;4953174;28;20059;-75
2023/12/06 07:38:30;;;;;;;121.28;54.42;;;;;;;-0.63;92.48;100650.09;4953817;28;20057;-74
2023/12/06 07:40:56;;;;;;;126.93;56.85;;;;;;;-0.86;92.96;100666.19;4951016;28;20083;-75
2023/12/06 07:43:25;;;;;;;129.98;56.65;;;;;;;-0.90;93.50;100664.59;4951473;28;20051;-75
2023/12/06 07:45:51;;;;;;;137.70;57.08;;;;;;;-0.79;93.07;100662.34;4953058;28;20389;-75
2023/12/06 07:48:18;;;;;;;131.98;57.10;;;;;;;-0.73;93.26;100659.41;4953125;28;20131;-75
2023/12/06 07:50:45;;;;;;;141.48;59.53;;;;;;;-0.54;92.70;100662.13;4951462;29;20055;-75
2023/12/06 07:53:12;;;;;;;117.78;55.20;;;;;;;-0.64;92.08;100661.69;4949479;28;20048;-75
2023/12/06 07:55:40;;;;;;;125.85;56.47;;;;;;;-0.59;92.24;100664.16;4933323;28;20111;-75
2023/12/06 07:58:07;;;;;;;137.48;58.35;;;;;;;-0.53;92.04;100658.56;4932925;28;20052;-75
2023/12/06 08:00:36;;;;;;;126.00;56.38;;;;;;;-0.55;92.49;100666.59;4934288;28;20416;-75
2023/12/06 08:03:04;;;;;;;135.38;56.10;;;;;;;-0.54;92.27;100673.66;4947786;28;20052;-75
2023/12/06 08:05:30;;;;;;;118.13;54.65;;;;;;;-0.57;92.17;100668.47;4933834;28;20107;-75
2023/12/06 08:07:57;;;;;;;127.03;56.28;;;;;;;-0.64;92.71;100671.47;4932939;28;20058;-74
2023/12/06 08:10:26;;;;;;;133.90;54.45;;;;;;;-0.58;92.93;100672.06;4932735;28;20055;-74
2023/12/06 08:12:54;;;;;;;123.97;55.00;;;;;;;-0.53;92.31;100680.75;4932548;29;20055;-74
2023/12/06 08:15:21;;;;;;;130.65;56.03;;;;;;;-0.41;91.79;100671.34;4933594;28;20053;-74
2023/12/06 08:17:49;;;;;;;139.73;54.85;;;;;;;-0.51;92.03;100672.69;4932532;28;20060;-74
2023/12/06 08:20:16;;;;;;;126.70;55.78;;;;;;;-0.47;92.07;100677.78;4933729;28;20492;-74
2023/12/06 08:22:42;;;;;;;121.45;56.17;;;;;;;-0.58;91.79;100673.88;4932596;28;20055;-74
2023/12/06 08:25:11;;;;;;;130.25;55.53;;;;;;;-0.50;92.24;100675.28;4931887;28;20047;-74
2023/12/06 08:27:38;;;;;;;130.57;53.75;;;;;;;-0.43;91.66;100681.22;4932376;28;20051;-73
2023/12/06 08:30:06;;;;;;;119.22;54.65;;;;;;;-0.49;92.33;100682.34;4932762;29;20480;-72
2023/12/06 08:32:33;;;;;;;121.55;54.75;;;;;;;-0.47;92.45;100679.59;4932633;29;20052;-72
2023/12/06 08:35:01;;;;;;;122.45;53.90;;;;;;;-0.27;92.00;100689.38;4932538;28;20061;-72
2023/12/06 08:37:28;;;;;;;131.38;55.28;;;;;;;-0.24;91.75;100681.28;4931826;28;20047;-72
2023/12/06 08:39:54;;;;;;;135.82;58.38;;;;;;;-0.50;91.78;100685.94;4931917;28;20420;-71
2023/12/06 08:42:21;;;;;;;110.55;52.92;;;;;;;-0.49;91.57;100674.34;4931656;28;20047;-71
2023/12/06 08:44:48;;;;;;;120.70;54.45;;;;;;;-0.30;91.43;100686.88;4932677;28;20063;-71
2023/12/06 08:47:17;;;;;;;116.18;55.30;;;;;;;-0.43;92.37;100679.41;4932944;29;20103;-71
2023/12/06 08:49:44;;;;;;;122.90;56.40;;;;;;;-0.18;91.08;100676.50;4933095;29;20055;-71
2023/12/06 08:52:11;;;;;;;122.32;54.45;;;;;;;-0.23;91.40;100683.00;4932345;28;20047;-71
2023/12/06 08:54:38;;;;;;;116.07;54.95;;;;;;;-0.22;91.63;100684.72;4932401;28;20059;-73
2023/12/06 08:57:06;;;;;;;119.70;54.13;;;;;;;-0.21;91.67;100683.78;4932543;28;20052;-71
2023/12/06 08:59:33;;;;;;;123.88;56.00;;;;;;;-0.23;91.33;100685.66;4947435;28;20131;-72
2023/12/06 09:01:59;;;;;;;114.55;53.58;;;;;;;-0.45;91.77;100683.91;4932418;28;20398;-71
2023/12/06 09:04:26;;;;;;;131.85;54.67;;;;;;;-0.66;93.23;100692.84;4932416;29;20138;-71
2023/12/06 09:06:53;;;;;;;125.25;54.25;;;;;;;-0.69;93.22;100694.78;4932269;28;20110;-71
2023/12/06 09:09:20;;;;;;;119.65;56.30;;;;;;;-0.75;93.46;100696.75;4932166;28;20060;-72
2023/12/06 09:11:47;;;;;;;129.93;56.92;;;;;;;-0.52;93.21;100695.81;4932190;28;20052;-71
2023/12/06 09:14:16;;;;;;;127.18;56.55;;;;;;;-0.47;92.50;100691.13;4932858;29;20055;-71
2023/12/06 09:16:43;;;;;;;141.63;57.58;;;;;;;-0.48;92.69;100692.06;4930905;28;20115;-72
2023/12/06 09:19:10;;;;;;;125.28;56.22;;;;;;;-0.45;92.90;100699.91;4932809;28;20055;-71
2023/12/06 09:21:41;;;;;;;127.30;55.13;;;;;;;-0.35;92.78;100704.84;4932562;28;20063;-71
2023/12/06 09:24:11;;;;;;;126.97;54.60;;;;;;;-0.55;92.33;100708.38;4935629;29;20499;-72
2023/12/06 09:26:38;;;;;;;131.20;55.28;;;;;;;-0.31;92.85;100702.00;4935599;28;20043;-71
2023/12/06 09:29:06;;;;;;;117.85;55.22;;;;;;;-0.30;91.94;100705.53;4935101;28;20469;-71
2023/12/06 09:31:33;;;;;;;128.80;57.15;;;;;;;-0.43;92.50;100714.06;4935603;28;20572;-71
2023/12/06 09:34:00;;;;;;;125.05;56.28;;;;;;;-0.41;92.54;100716.66;4935980;29;20052;-71
2023/12/06 09:36:29;;;;;;;130.63;55.05;;;;;;;-0.27;92.20;100710.69;4935128;28;20143;-71
2023/12/06 09:39:00;;;;;;;119.47;55.40;;;;;;;-0.12;92.05;100710.03;4935804;29;20524;-72
2023/12/06 09:41:28;;;;;;;134.60;56.30;;;;;;;-0.27;91.82;100713.38;4935667;28;20420;-72
2023/12/06 09:43:56;;;;;;;122.85;54.22;;;;;;;-0.61;93.19;100713.97;4935339;28;20500;-71
2023/12/06 09:46:23;;;;;;;122.43;55.03;;;;;;;-0.41;92.94;100713.13;4935244;28;20500;-72
2023/12/06 09:48:52;;;;;;;118.22;53.55;;;;;;;-0.16;91.68;100712.00;4934525;28;20058;-71
2023/12/06 09:51:20;;;;;;;121.20;54.92;;;;;;;-0.13;91.75;100715.44;4935617;28;20572;-69
2023/12/06 09:53:47;;;;;;;124.80;54.55;;;;;;;-0.11;91.55;100713.56;4953649;28;20051;-70
2023/12/06 09:56:13;;;;;;;121.30;53.63;;;;;;;-0.05;91.55;100708.84;4954093;28;20054;-70
2023/12/06 09:58:43;;;;;;;116.95;53.75;;;;;;;-0.03;91.62;100714.09;4954677;28;20055;-71
2023/12/06 10:01:10;;;;;;;119.00;53.35;;;;;;;-0.11;91.54;100717.09;4953722;28;20055;-70
2023/12/06 10:03:38;;;;;;;128.98;55.95;;;;;;;-0.07;91.74;100710.72;4954317;28;20492;-70
2023/12/06 10:06:05;;;;;;;118.70;51.95;;;;;;;-0.00;91.28;100711.28;4954775;28;20054;-70
2023/12/06 10:08:36;;;;;;;119.80;53.10;;;;;;;-0.02;91.00;100711.34;4954687;28;20049;-70
2023/12/06 10:11:12;;;;;;;115.43;53.92;;;;;;;-0.09;91.19;100712.56;4953917;28;20494;-69
2023/12/06 10:13:41;;;;;;;120.22;54.22;;;;;;;-0.20;91.59;100710.38;4954573;28;20058;-70
2023/12/06 10:16:14;;;;;;;120.70;53.42;;;;;;;-0.13;92.55;100710.97;4953946;28;20563;-70
2023/12/06 10:18:41;;;;;;;118.07;53.03;;;;;;;-0.02;91.67;100703.38;4954191;28;20488;-70
2023/12/06 10:21:11;;;;;;;129.80;52.70;;;;;;;0.25;90.88;100701.25;4953931;28;20082;-70
2023/12/06 10:23:38;;;;;;;125.13;54.38;;;;;;;0.27;90.50;100709.16;4954019;28;20088;-70
2023/12/06 10:26:05;;;;;;;117.07;53.92;;;;;;;0.18;90.95;100704.25;4954139;28;20044;-69
2023/12/06 10:28:35;;;;;;;114.00;51.95;;;;;;;0.11;90.67;100704.53;4952881;28;20051;-69
2023/12/06 10:31:03;;;;;;;121.80;53.38;;;;;;;0.28;90.35;100702.91;4953588;28;20106;-69
2023/12/06 10:33:31;;;;;;;122.60;53.83;;;;;;;0.08;91.21;100703.81;4952819;28;20496;-70
2023/12/06 10:36:00;;;;;;;111.82;53.92;;;;;;;0.15;91.38;100710.59;4953745;28;20050;-70
2023/12/06 10:38:28;;;;;;;117.85;50.45;;;;;;;0.03;91.61;100703.16;4953792;28;20050;-70
2023/12/06 10:40:58;;;;;;;112.85;50.50;;;;;;;0.08;91.46;100703.81;4954173;28;20106;-70
2023/12/06 10:43:26;;;;;;;110.15;49.78;;;;;;;0.03;91.74;100701.38;4953542;28;20062;-71
2023/12/06 10:45:53;;;;;;;123.00;54.08;;;;;;;0.20;91.65;100697.03;4954109;28;20054;-70
2023/12/06 10:48:21;;;;;;;106.55;51.50;;;;;;;0.30;90.41;100698.34;4953883;28;20061;-71
2023/12/06 10:50:49;;;;;;;118.80;52.10;;;;;;;-0.06;91.82;100701.78;4954964;28;20125;-70
2023/12/06 10:53:17;;;;;;;112.53;51.28;;;;;;;0.23;91.75;100699.59;4954566;28;20504;-70
2023/12/06 10:55:46;;;;;;;118.63;52.42;;;;;;;0.23;91.19;100705.78;4954693;28;20567;-70
2023/12/06 10:58:16;;;;;;;119.82;52.25;;;;;;;0.02;91.54;100704.94;4951984;28;20492;-71
2023/12/06 11:00:43;;;;;;;118.03;51.00;;;;;;;0.19;91.26;100697.97;4953661;28;20110;-70
2023/12/06 11:03:10;;;;;;;109.45;51.15;;;;;;;0.07;91.62;100702.94;4954277;28;20120;-70